Time;durP1;ratioP1;P1;durP2;ratioP2;P2;SDS_P1;SDS_P2;PMS_P1;PMS_P2;Temp;Humidity;BMP_temperature;BMP_pressure;BME280_temperature;BME280_humidity;BME280_pressure;Samples;Min_cycle;Max_cycle;Signal;HPM_P1;HPM_P2
2021/03/10 00:00:00;;;;;;;1.55;1.08;;;;;;;20.31;43.03;99902.03;5075982;28;20391;-77
2021/03/10 00:02:26;;;;;;;2.03;0.98;;;;;;;20.12;43.46;99912.38;5075833;28;20077;-77
2021/03/10 00:04:52;;;;;;;1.83;0.82;;;;;;;20.16;43.45;99907.63;5074818;28;20071;-77
2021/03/10 00:07:17;;;;;;;2.10;1.00;;;;;;;20.18;43.39;99901.69;5075746;28;20036;-77
2021/03/10 00:09:43;;;;;;;2.28;1.15;;;;;;;20.18;43.60;99918.34;5075536;28;20029;-77
2021/03/10 00:12:09;;;;;;;2.67;0.70;;;;;;;19.98;43.89;99917.94;5075751;28;20394;-77
2021/03/10 00:14:35;;;;;;;0.63;0.60;;;;;;;20.16;43.61;99907.63;5075916;28;20028;-77
2021/03/10 00:17:00;;;;;;;2.22;1.00;;;;;;;20.16;43.77;99923.47;5075603;28;20039;-77
2021/03/10 00:19:27;;;;;;;4.72;1.40;;;;;;;20.18;43.61;99927.44;5075786;28;20031;-77
2021/03/10 00:21:52;;;;;;;1.83;0.60;;;;;;;20.26;43.40;99928.22;5075631;28;20033;-77
2021/03/10 00:24:18;;;;;;;2.08;0.93;;;;;;;20.46;43.04;99936.94;5075630;28;20052;-77
2021/03/10 00:26:44;;;;;;;2.22;0.77;;;;;;;20.34;43.37;99938.13;5075441;28;20021;-78
2021/03/10 00:29:11;;;;;;;1.85;0.82;;;;;;;20.42;43.28;99917.50;5075580;28;20032;-78
2021/03/10 00:31:36;;;;;;;1.05;0.70;;;;;;;20.35;43.44;99917.50;5074756;28;20032;-77
2021/03/10 00:34:02;;;;;;;0.88;0.70;;;;;;;20.42;43.27;99925.03;5075713;28;20417;-78
2021/03/10 00:36:28;;;;;;;0.65;0.65;;;;;;;20.36;43.57;99932.16;5075251;28;20063;-78
2021/03/10 00:38:53;;;;;;;1.88;0.80;;;;;;;20.36;43.56;99926.63;5075342;28;20025;-77
2021/03/10 00:41:19;;;;;;;1.75;0.80;;;;;;;20.39;43.53;99914.72;5075245;28;20028;-77
2021/03/10 00:43:44;;;;;;;0.60;0.60;;;;;;;20.46;43.29;99934.94;5075061;28;20085;-77
2021/03/10 00:46:10;;;;;;;0.50;0.50;;;;;;;19.72;45.42;99957.91;5075275;28;20032;-78
2021/03/10 00:48:35;;;;;;;1.08;0.70;;;;;;;19.82;45.21;99957.13;5074287;28;20029;-77
2021/03/10 00:51:01;;;;;;;3.08;1.20;;;;;;;19.33;45.82;99938.38;5074934;28;20115;-77
2021/03/10 00:53:26;;;;;;;7.72;1.60;;;;;;;18.95;46.11;99953.69;5074700;28;20033;-77
2021/03/10 00:55:52;;;;;;;6.88;1.75;;;;;;;18.75;46.20;99962.28;5074767;28;20025;-77
2021/03/10 00:58:18;;;;;;;7.07;1.88;;;;;;;18.78;45.41;99955.97;5075169;28;20485;-77
2021/03/10 01:00:43;;;;;;;5.70;1.45;;;;;;;18.65;45.51;99971.28;5074783;28;20064;-77
2021/03/10 01:03:09;;;;;;;3.78;1.40;;;;;;;18.61;45.46;99975.22;5073594;28;20029;-77
2021/03/10 01:05:35;;;;;;;6.45;1.75;;;;;;;18.97;44.54;99976.25;5074960;28;20043;-78
2021/03/10 01:08:00;;;;;;;7.13;2.25;;;;;;;18.93;44.34;99967.13;5074883;28;20029;-78
2021/03/10 01:10:26;;;;;;;10.40;1.92;;;;;;;19.04;44.18;99973.50;5074522;28;20024;-78
2021/03/10 01:12:51;;;;;;;11.07;2.33;;;;;;;18.93;44.03;99975.41;5073534;28;20024;-78
2021/03/10 01:15:20;;;;;;;9.32;1.85;;;;;;;18.90;43.96;99982.53;5074946;28;20044;-77
2021/03/10 01:17:47;;;;;;;8.75;1.80;;;;;;;19.17;43.27;99980.28;5074025;28;20467;-78
2021/03/10 01:20:15;;;;;;;19.10;2.63;;;;;;;19.25;43.14;99972.78;5074435;28;20032;-77
2021/03/10 01:22:41;;;;;;;11.43;1.83;;;;;;;19.18;43.15;99981.84;5074503;28;20040;-78
2021/03/10 01:25:07;;;;;;;5.75;1.55;;;;;;;19.19;43.04;99983.44;5074546;28;20040;-78
2021/03/10 01:27:33;;;;;;;8.07;2.42;;;;;;;19.01;43.47;99980.59;5074278;28;20041;-78
2021/03/10 01:29:59;;;;;;;11.90;2.90;;;;;;;19.09;43.40;99986.97;5074437;28;20037;-77
2021/03/10 01:32:25;;;;;;;7.00;2.33;;;;;;;19.18;42.98;99992.16;5074384;28;20039;-77
2021/03/10 01:34:51;;;;;;;7.28;2.60;;;;;;;18.97;43.47;99984.56;5089954;28;20037;-78
2021/03/10 01:37:17;;;;;;;9.48;2.47;;;;;;;19.05;43.13;99983.41;5074174;28;20028;-78
2021/03/10 01:39:42;;;;;;;11.05;2.30;;;;;;;18.98;43.36;99986.94;5073706;28;20036;-78
2021/03/10 01:42:08;;;;;;;10.35;2.22;;;;;;;19.05;43.04;99983.41;5074185;28;20028;-78
2021/03/10 01:44:34;;;;;;;10.02;2.33;;;;;;;18.93;43.43;100000.34;5074216;28;20031;-77
2021/03/10 01:47:01;;;;;;;16.52;3.38;;;;;;;19.17;42.63;99991.34;5074007;28;20035;-78
2021/03/10 01:49:27;;;;;;;13.73;2.90;;;;;;;19.17;42.68;99982.25;5074109;28;20024;-78
2021/03/10 01:51:53;;;;;;;12.48;2.75;;;;;;;19.06;43.03;99991.31;5073934;28;20072;-78
2021/03/10 01:54:19;;;;;;;11.23;2.45;;;;;;;18.99;42.87;99996.81;5073892;28;20056;-78
2021/03/10 01:56:45;;;;;;;11.50;2.92;;;;;;;19.18;42.44;99992.94;5073901;28;20107;-78
2021/03/10 01:59:11;;;;;;;13.65;3.22;;;;;;;19.19;42.56;99983.44;5073825;28;20035;-78
2021/03/10 02:01:37;;;;;;;12.65;2.45;;;;;;;19.19;42.49;99986.22;5073459;28;20498;-78
2021/03/10 02:04:08;;;;;;;15.25;3.65;;;;;;;19.22;42.20;99981.88;5088793;28;20509;-78
2021/03/10 02:06:52;;;;;;;8.85;2.60;;;;;;;19.04;42.74;99970.72;5073780;28;20036;-78
2021/03/10 02:09:23;;;;;;;12.38;2.42;;;;;;;19.06;42.47;99969.16;5072437;28;20398;-78
2021/03/10 02:12:10;;;;;;;17.33;3.15;;;;;;;19.21;42.01;99961.72;5073432;28;20021;-78
2021/03/10 02:14:51;;;;;;;12.82;3.30;;;;;;;19.13;42.30;99965.63;5073654;28;20071;-78
2021/03/10 02:17:22;;;;;;;19.27;3.50;;;;;;;18.96;42.55;99960.78;5073239;28;20495;-78
2021/03/10 02:19:56;;;;;;;9.40;1.80;;;;;;;18.88;42.51;99951.66;5072270;28;20032;-78
2021/03/10 02:22:40;;;;;;;16.10;3.25;;;;;;;19.19;41.96;99944.66;5073585;28;20033;-78
2021/03/10 02:25:15;;;;;;;11.05;2.80;;;;;;;19.16;41.97;99947.44;5073099;28;20028;-78
2021/03/10 02:27:49;;;;;;;14.95;3.10;;;;;;;19.08;42.02;99958.50;5072945;28;20020;-78
2021/03/10 02:30:34;;;;;;;15.60;5.32;;;;;;;19.08;42.34;99954.94;5073329;28;20028;-78
2021/03/10 02:33:04;;;;;;;12.10;2.10;;;;;;;19.09;42.00;99945.44;5073222;28;20158;-77
2021/03/10 02:35:31;;;;;;;12.88;2.78;;;;;;;19.32;41.60;99948.69;5071730;28;20090;-78
2021/03/10 02:37:59;;;;;;;10.88;2.92;;;;;;;19.34;41.48;99946.31;5073149;28;20470;-78
2021/03/10 02:40:27;;;;;;;13.82;2.85;;;;;;;19.24;41.62;99944.31;5073061;28;20486;-78
2021/03/10 02:42:53;;;;;;;10.02;3.00;;;;;;;19.13;41.91;99940.72;5072814;28;20056;-78
2021/03/10 02:45:27;;;;;;;11.23;2.63;;;;;;;19.19;41.82;99952.97;5072867;28;20036;-78
2021/03/10 02:47:55;;;;;;;14.25;3.05;;;;;;;19.19;41.69;99949.41;5072996;28;20471;-78
2021/03/10 02:50:21;;;;;;;18.17;3.60;;;;;;;19.19;41.79;99958.53;5072182;28;20043;-78
2021/03/10 02:52:49;;;;;;;15.13;3.20;;;;;;;19.17;41.74;99952.59;5072846;28;20033;-78
2021/03/10 02:55:15;;;;;;;14.07;3.72;;;;;;;19.22;41.64;99943.13;5072643;28;20029;-78
2021/03/10 02:57:41;;;;;;;12.30;2.63;;;;;;;19.27;41.50;99949.09;5073185;28;20043;-78
2021/03/10 03:00:11;;;;;;;15.43;3.72;;;;;;;19.20;41.65;99940.75;5072755;28;20044;-78
2021/03/10 03:02:37;;;;;;;10.40;3.00;;;;;;;19.27;41.54;99943.53;5072292;28;20029;-78
2021/03/10 03:05:07;;;;;;;13.90;2.40;;;;;;;19.24;41.31;99944.31;5072854;28;20028;-78
2021/03/10 03:07:36;;;;;;;15.52;3.63;;;;;;;19.16;41.49;99951.00;5072761;28;20032;-78
2021/03/10 03:10:08;;;;;;;14.68;3.13;;;;;;;18.98;41.86;99948.19;5072666;28;20455;-78
2021/03/10 03:12:34;;;;;;;9.30;2.75;;;;;;;19.19;41.62;99946.66;5071398;28;20619;-78
2021/03/10 03:15:01;;;;;;;10.75;2.90;;;;;;;19.34;41.05;99949.06;5072453;28;20013;-78
2021/03/10 03:17:30;;;;;;;13.82;2.83;;;;;;;19.17;41.20;99943.47;5072588;28;20024;-78
2021/03/10 03:19:55;;;;;;;16.08;3.42;;;;;;;19.15;41.42;99938.34;5072705;28;20016;-78
2021/03/10 03:22:23;;;;;;;14.65;3.25;;;;;;;19.06;41.58;99937.91;5072275;28;20359;-78
2021/03/10 03:24:50;;;;;;;13.18;3.63;;;;;;;19.19;41.19;99925.28;5072613;28;20017;-78
2021/03/10 03:27:25;;;;;;;14.07;3.15;;;;;;;19.31;40.74;99918.59;5072442;28;20407;-81
2021/03/10 03:29:54;;;;;;;9.50;2.72;;;;;;;19.17;40.89;99924.91;5072318;28;20032;-78
2021/03/10 03:32:26;;;;;;;12.00;3.30;;;;;;;19.19;40.82;99928.06;5072714;28;20017;-78
2021/03/10 03:34:52;;;;;;;10.13;2.83;;;;;;;19.27;40.62;99935.22;5072131;28;20036;-78
2021/03/10 03:37:18;;;;;;;9.02;2.15;;;;;;;19.23;40.75;99937.19;5072324;28;20443;-78
2021/03/10 03:39:44;;;;;;;16.52;3.25;;;;;;;19.23;40.37;99937.19;5070843;28;20120;-78
2021/03/10 03:42:10;;;;;;;12.25;2.60;;;;;;;19.32;40.22;99936.81;5072370;28;20104;-78
2021/03/10 03:44:36;;;;;;;13.10;3.22;;;;;;;19.19;40.35;99933.59;5072260;28;20383;-78
2021/03/10 03:47:02;;;;;;;10.23;3.38;;;;;;;19.20;40.42;99939.94;5072192;28;20016;-78
2021/03/10 03:49:28;;;;;;;19.15;3.97;;;;;;;19.36;39.84;99932.09;5072267;28;20478;-78
2021/03/10 03:51:53;;;;;;;19.27;3.67;;;;;;;19.27;39.82;99924.16;5072189;28;20113;-78
2021/03/10 03:54:19;;;;;;;15.35;4.30;;;;;;;19.32;39.71;99926.53;5072235;28;20052;-79
2021/03/10 03:56:45;;;;;;;10.90;2.78;;;;;;;19.20;39.83;99934.41;5070756;28;20028;-78
2021/03/10 03:59:11;;;;;;;13.90;4.97;;;;;;;19.11;39.70;99937.53;5071265;28;20031;-78
2021/03/10 04:01:36;;;;;;;15.55;3.20;;;;;;;19.20;39.74;99932.44;5070898;28;20457;-78
2021/03/10 04:04:02;;;;;;;14.65;2.75;;;;;;;19.27;39.55;99940.78;5070566;28;20024;-78
2021/03/10 04:06:28;;;;;;;17.10;4.82;;;;;;;19.13;39.71;99943.50;5071204;28;20067;-78
2021/03/10 04:08:53;;;;;;;11.35;3.17;;;;;;;19.14;39.62;99942.31;5072113;28;20103;-78
2021/03/10 04:11:20;;;;;;;19.08;3.05;;;;;;;19.14;39.60;99939.53;5072052;28;20526;-78
2021/03/10 04:13:46;;;;;;;13.18;3.50;;;;;;;19.01;39.66;99935.53;5072000;28;20479;-78
2021/03/10 04:16:12;;;;;;;14.27;4.25;;;;;;;19.06;39.59;99938.72;5071837;28;20055;-78
2021/03/10 04:18:38;;;;;;;12.70;3.03;;;;;;;19.18;39.44;99925.69;5072073;28;20025;-78
2021/03/10 04:21:08;;;;;;;13.77;2.80;;;;;;;19.19;39.34;99919.75;5070907;28;20121;-78
2021/03/10 04:23:35;;;;;;;16.35;3.88;;;;;;;19.22;39.34;99915.44;5072524;28;20027;-78
2021/03/10 04:26:00;;;;;;;12.95;3.50;;;;;;;19.20;39.23;99915.81;5075411;28;20032;-78
2021/03/10 04:28:26;;;;;;;11.02;3.78;;;;;;;19.23;39.35;99922.53;5075472;28;20023;-78
2021/03/10 04:30:53;;;;;;;14.50;4.00;;;;;;;19.28;38.99;99919.41;5075494;28;20028;-78
2021/03/10 04:33:19;;;;;;;13.63;3.92;;;;;;;19.31;39.25;99918.59;5075422;28;20024;-78
2021/03/10 04:35:45;;;;;;;11.88;3.17;;;;;;;19.34;38.94;99918.59;5075521;28;20051;-78
2021/03/10 04:38:11;;;;;;;15.40;3.25;;;;;;;19.35;39.20;99902.81;5075283;28;20470;-78
2021/03/10 04:40:36;;;;;;;9.55;3.25;;;;;;;19.33;39.21;99907.91;5075386;28;20039;-78
2021/03/10 04:43:02;;;;;;;12.43;3.20;;;;;;;19.34;38.99;99909.50;5075011;28;20033;-78
2021/03/10 04:45:28;;;;;;;18.80;3.65;;;;;;;19.38;39.07;99913.09;5074818;28;20024;-78
2021/03/10 04:47:54;;;;;;;11.55;3.55;;;;;;;19.40;39.03;99911.50;5075352;28;20039;-78
2021/03/10 04:50:21;;;;;;;7.63;2.30;;;;;;;19.39;39.24;99895.28;5075078;28;20470;-78
2021/03/10 04:52:46;;;;;;;10.07;2.80;;;;;;;19.45;39.04;99895.69;5075103;28;20040;-78
2021/03/10 04:55:12;;;;;;;12.68;2.97;;;;;;;19.37;39.38;99912.28;5075165;28;20028;-78
2021/03/10 04:57:39;;;;;;;15.20;3.40;;;;;;;19.36;39.30;99916.25;5074871;28;20032;-78
2021/03/10 05:00:07;;;;;;;16.98;3.65;;;;;;;19.28;39.43;99914.66;5074812;28;20047;-78
2021/03/10 05:02:33;;;;;;;14.50;3.17;;;;;;;19.18;39.66;99929.25;5074695;28;20033;-78
2021/03/10 05:04:59;;;;;;;16.75;4.90;;;;;;;18.97;40.06;99951.34;5073972;28;20043;-78
2021/03/10 05:07:24;;;;;;;15.40;3.90;;;;;;;19.13;39.61;99962.88;5074188;28;20409;-78
2021/03/10 05:09:50;;;;;;;20.52;4.13;;;;;;;19.17;39.39;99963.66;5074854;28;20032;-78
2021/03/10 05:12:16;;;;;;;25.13;3.75;;;;;;;19.19;39.58;99955.75;5075162;28;20028;-77
2021/03/10 05:14:41;;;;;;;20.17;3.05;;;;;;;19.21;39.50;99945.09;5074724;28;20032;-78
2021/03/10 05:17:07;;;;;;;13.77;3.53;;;;;;;19.00;39.88;99956.09;5074719;28;20047;-78
2021/03/10 05:19:32;;;;;;;10.30;2.78;;;;;;;18.93;40.11;99958.81;5074672;28;20082;-78
2021/03/10 05:21:58;;;;;;;13.90;3.80;;;;;;;18.91;40.07;99944.56;5074118;28;20036;-78
2021/03/10 05:24:23;;;;;;;16.15;3.38;;;;;;;19.07;39.78;99953.34;5073539;28;20029;-78
2021/03/10 05:26:49;;;;;;;17.23;3.28;;;;;;;19.00;39.75;99945.81;5074579;28;20115;-78
2021/03/10 05:29:15;;;;;;;12.50;3.45;;;;;;;19.07;39.66;99942.28;5074109;28;20024;-78
2021/03/10 05:31:40;;;;;;;12.43;3.25;;;;;;;18.83;39.99;99944.53;5074123;28;20060;-78
2021/03/10 05:34:06;;;;;;;14.70;4.22;;;;;;;18.84;39.96;99940.59;5074579;28;20028;-78
2021/03/10 05:36:32;;;;;;;16.02;3.25;;;;;;;18.76;39.88;99927.91;5073736;28;20032;-78
2021/03/10 05:38:57;;;;;;;13.52;3.00;;;;;;;18.87;39.63;99935.44;5074434;28;20024;-78
2021/03/10 05:41:23;;;;;;;9.05;2.88;;;;;;;18.88;39.33;99937.81;5074253;28;20047;-78
2021/03/10 05:43:49;;;;;;;25.38;4.70;;;;;;;18.91;39.45;99955.66;5074341;28;20459;-78
2021/03/10 05:46:15;;;;;;;16.30;3.55;;;;;;;18.94;39.21;99938.25;5073976;28;20033;-78
2021/03/10 05:48:41;;;;;;;13.60;3.45;;;;;;;18.94;39.26;99946.56;5074156;28;20077;-78
2021/03/10 05:51:07;;;;;;;15.60;3.88;;;;;;;19.00;39.04;99931.97;5074028;28;20131;-78
2021/03/10 05:53:41;;;;;;;16.67;3.78;;;;;;;18.75;39.59;99931.84;5073437;28;20107;-78
2021/03/10 05:56:07;;;;;;;18.60;3.33;;;;;;;18.79;39.01;99932.66;5073988;28;20111;-78
2021/03/10 05:58:33;;;;;;;16.88;4.15;;;;;;;18.83;39.08;99927.94;5073968;28;20533;-79
2021/03/10 06:00:59;;;;;;;15.88;3.50;;;;;;;18.76;39.33;99929.88;5073610;28;20049;-78
2021/03/10 06:03:24;;;;;;;14.32;3.63;;;;;;;18.86;38.95;99929.13;5073866;28;20024;-78
2021/03/10 06:06:01;;;;;;;12.48;3.25;;;;;;;18.88;38.88;99926.75;5073721;28;20398;-78
2021/03/10 06:08:30;;;;;;;14.65;3.72;;;;;;;18.84;39.17;99929.53;5072453;28;20466;-78
2021/03/10 06:10:56;;;;;;;21.70;3.92;;;;;;;18.85;39.02;99936.63;5073631;28;20032;-78
2021/03/10 06:13:24;;;;;;;21.30;5.13;;;;;;;18.70;39.01;99934.97;5073858;28;20024;-78
2021/03/10 06:15:52;;;;;;;16.60;4.43;;;;;;;18.80;39.23;99937.00;5072967;28;20221;-78
2021/03/10 06:18:21;;;;;;;12.27;3.40;;;;;;;18.68;39.13;99936.56;5073479;28;20489;-78
2021/03/10 06:20:47;;;;;;;20.10;3.65;;;;;;;18.78;39.07;99939.38;5072266;28;20020;-78
2021/03/10 06:23:16;;;;;;;17.73;3.95;;;;;;;18.84;38.99;99929.53;5073468;28;20158;-78
2021/03/10 06:25:42;;;;;;;;;;;;;;;18.74;39.09;99924.72;5073783;28;20040;-78
2021/03/10 06:28:08;;;;;;;19.00;3.78;;;;;;;18.71;39.09;99922.72;5070806;28;20294;-78
2021/03/10 06:30:35;;;;;;;20.83;4.15;;;;;;;18.71;39.23;99927.47;5071971;28;20379;-78
2021/03/10 06:33:01;;;;;;;20.50;4.07;;;;;;;18.63;39.30;99925.81;5073302;28;20098;-78
2021/03/10 06:35:29;;;;;;;17.60;3.90;;;;;;;18.56;39.45;99923.81;5073506;28;20024;-78
2021/03/10 06:38:15;;;;;;;28.33;5.38;;;;;;;18.49;39.68;99915.47;5073231;28;20028;-82
2021/03/10 06:40:49;;;;;;;21.45;4.15;;;;;;;18.55;39.80;99905.63;5072777;28;20040;-78
2021/03/10 06:43:15;;;;;;;25.30;5.40;;;;;;;18.49;39.80;99904.38;5072865;28;20072;-79
2021/03/10 06:45:41;;;;;;;21.42;3.97;;;;;;;18.55;39.66;99908.38;5073533;28;20106;-78
2021/03/10 06:48:20;;;;;;;13.95;3.38;;;;;;;18.51;39.89;99905.63;5072406;28;20564;-78
2021/03/10 06:50:47;;;;;;;21.53;4.30;;;;;;;18.57;39.70;99908.78;5072811;28;20028;-78
2021/03/10 06:53:12;;;;;;;17.48;4.13;;;;;;;18.55;39.93;99894.56;5073331;28;20055;-78
2021/03/10 06:55:40;;;;;;;25.77;5.10;;;;;;;18.55;40.06;99894.56;5073001;28;20437;-78
2021/03/10 06:58:08;;;;;;;20.85;4.57;;;;;;;18.52;40.02;99889.81;5072739;28;20035;-78
2021/03/10 07:00:34;;;;;;;19.48;4.35;;;;;;;18.45;40.19;99879.50;5072790;28;20434;-78
2021/03/10 07:03:00;;;;;;;22.13;4.53;;;;;;;18.46;40.05;99880.28;5072579;28;20029;-78
2021/03/10 07:05:28;;;;;;;20.80;4.88;;;;;;;18.37;40.14;99879.84;5072855;28;20032;-78
2021/03/10 07:07:54;;;;;;;18.98;4.55;;;;;;;18.39;40.43;99871.94;5072970;28;20388;-78
2021/03/10 07:10:26;;;;;;;15.48;3.55;;;;;;;18.39;40.14;99858.13;5072672;28;20051;-78
2021/03/10 07:12:55;;;;;;;23.25;4.45;;;;;;;18.32;40.38;99858.06;5072738;28;20036;-77
2021/03/10 07:15:21;;;;;;;17.73;3.78;;;;;;;18.22;40.48;99846.56;5072825;28;20024;-78
2021/03/10 07:17:49;;;;;;;19.13;4.47;;;;;;;18.26;40.36;99836.31;5072585;28;20073;-77
2021/03/10 07:20:16;;;;;;;12.25;2.75;;;;;;;18.34;40.11;99828.06;5072492;28;20593;-77
2021/03/10 07:23:06;;;;;;;25.33;3.90;;;;;;;18.28;40.17;99811.81;5072419;28;20025;-81
2021/03/10 07:25:35;;;;;;;;;;;;;;;18.05;40.63;99811.28;5072252;28;20025;-77
2021/03/10 07:28:05;;;;;;;16.67;4.20;;;;;;;18.28;39.85;99814.59;5072569;28;20381;-77
2021/03/10 07:30:38;;;;;;;25.60;4.50;;;;;;;18.26;40.13;99810.63;5072579;28;20037;-77
2021/03/10 07:33:12;;;;;;;18.40;3.90;;;;;;;18.22;40.21;99805.09;5072280;28;20028;-77
2021/03/10 07:35:58;;;;;;;19.75;4.00;;;;;;;17.95;40.74;99784.41;5072523;28;20107;-77
2021/03/10 07:38:36;;;;;;;13.52;3.95;;;;;;;18.05;40.38;99782.88;5072398;28;20493;-77
2021/03/10 07:41:05;;;;;;;19.27;3.50;;;;;;;17.96;40.70;99770.19;5072261;28;20108;-78
2021/03/10 07:43:50;;;;;;;14.83;3.30;;;;;;;18.03;40.59;99758.38;5072143;28;20109;-78
2021/03/10 07:46:20;;;;;;;23.55;4.03;;;;;;;18.07;40.53;99764.72;5072170;28;20284;-78
2021/03/10 07:48:46;;;;;;;19.88;3.03;;;;;;;18.10;40.44;99772.25;5070414;28;20399;-79
2021/03/10 07:51:29;;;;;;;26.90;5.68;;;;;;;18.08;40.39;99766.31;5067461;28;20021;-78
2021/03/10 07:53:55;;;;;;;27.33;5.80;;;;;;;18.09;40.77;99767.09;5070688;28;20115;-77
2021/03/10 07:56:29;;;;;;;18.52;4.57;;;;;;;17.93;41.04;99759.13;5087648;28;20484;-77
2021/03/10 07:59:16;;;;;;;16.05;3.58;;;;;;;18.11;41.01;99748.94;5072652;28;20037;-79
2021/03/10 08:01:42;;;;;;;18.05;3.00;;;;;;;18.20;40.76;99752.13;5076318;28;20044;-77
2021/03/10 08:04:12;;;;;;;11.30;3.35;;;;;;;18.21;40.78;99744.63;5068504;28;21196;-79
2021/03/10 08:06:42;;;;;;;17.05;3.03;;;;;;;18.11;41.09;99746.19;5060373;28;20488;-80
2021/03/10 08:09:08;;;;;;;;;;;;;;;18.05;41.55;99722.84;5060838;28;20024;-87
2021/03/10 08:11:42;;;;;;;19.15;3.42;;;;;;;18.05;41.40;99711.78;5058902;28;20468;-79
2021/03/10 08:14:08;;;;;;;16.30;3.33;;;;;;;18.13;41.32;99701.56;5060358;28;20024;-79
2021/03/10 08:16:50;;;;;;;16.52;2.92;;;;;;;18.02;41.48;99702.31;5060214;28;20024;-78
2021/03/10 08:19:21;;;;;;;14.98;3.13;;;;;;;17.90;41.86;99712.91;5059292;28;20028;-79
2021/03/10 08:21:52;;;;;;;15.32;3.10;;;;;;;18.04;41.38;99721.25;5060429;28;20021;-79
2021/03/10 08:24:18;;;;;;;15.02;4.18;;;;;;;17.96;41.47;99719.66;5060649;28;20017;-79
2021/03/10 08:26:48;;;;;;;11.32;3.50;;;;;;;18.16;41.51;99693.28;5059635;28;20102;-79
2021/03/10 08:29:14;;;;;;;17.23;3.67;;;;;;;18.15;41.35;99669.59;5060770;28;20104;-81
2021/03/10 08:31:48;;;;;;;23.95;4.80;;;;;;;18.15;41.42;99663.28;5058077;28;20186;-77
2021/03/10 08:34:15;;;;;;;16.30;3.97;;;;;;;18.26;41.34;99673.16;5059026;28;20017;-77
2021/03/10 08:36:41;;;;;;;16.92;4.22;;;;;;;18.33;41.39;99664.09;5053840;28;20143;-82
2021/03/10 08:39:14;;;;;;;15.10;4.47;;;;;;;18.21;42.14;99659.75;5057151;28;20099;-82
2021/03/10 08:41:49;;;;;;;23.58;4.30;;;;;;;18.40;41.89;99649.50;5056748;28;20047;-81
2021/03/10 08:44:18;;;;;;;20.85;4.55;;;;;;;18.38;41.84;99646.34;5058781;28;20029;-82
2021/03/10 08:46:46;;;;;;;24.45;4.93;;;;;;;18.49;41.78;99656.25;5059380;28;20013;-78
2021/03/10 08:49:26;;;;;;;14.32;4.85;;;;;;;18.41;42.56;99645.56;5059140;28;20453;-77
2021/03/10 08:52:14;;;;;;;23.10;4.30;;;;;;;18.42;42.84;99630.53;5058230;28;20548;-80
2021/03/10 08:54:59;;;;;;;16.80;5.18;;;;;;;18.60;42.62;99625.84;5058656;28;21141;-77
2021/03/10 08:57:33;;;;;;;17.20;3.72;;;;;;;18.62;42.66;99614.38;5057244;28;20099;-77
2021/03/10 09:00:00;;;;;;;20.77;4.53;;;;;;;18.72;42.33;99610.84;5059074;28;20052;-77
2021/03/10 09:02:37;;;;;;;17.55;4.50;;;;;;;18.72;42.60;99608.88;5056480;28;20120;-77
2021/03/10 09:05:07;;;;;;;19.20;3.33;;;;;;;18.79;42.75;99603.34;5058937;28;20539;-79
2021/03/10 09:07:33;;;;;;;24.60;4.93;;;;;;;18.77;42.68;99602.94;5056382;28;20552;-79
2021/03/10 09:10:07;;;;;;;15.18;3.65;;;;;;;18.68;43.30;99597.03;5054095;28;20028;-82
2021/03/10 09:12:33;;;;;;;20.13;4.82;;;;;;;18.72;43.14;99600.56;5056998;28;20921;-79
2021/03/10 09:14:59;;;;;;;19.02;4.35;;;;;;;18.77;42.96;99594.63;5056520;28;20074;-80
2021/03/10 09:17:32;;;;;;;16.50;4.55;;;;;;;18.82;43.13;99594.25;5063278;28;20083;-77
2021/03/10 09:20:02;;;;;;;16.13;5.45;;;;;;;18.83;42.86;99572.91;5074358;28;20355;-81
2021/03/10 09:22:27;;;;;;;;;;;;;;;18.70;43.33;99566.97;5074321;28;20470;-82
2021/03/10 09:24:58;;;;;;;18.40;5.13;;;;;;;18.87;42.98;99565.38;5072162;28;19923;-83
2021/03/10 09:27:29;;;;;;;14.55;5.00;;;;;;;19.04;42.68;99550.72;5068823;28;20055;-86
2021/03/10 09:30:08;;;;;;;17.42;9.75;;;;;;;19.17;42.36;99536.44;5071503;28;20056;-83
2021/03/10 09:32:49;;;;;;;15.88;4.75;;;;;;;18.89;42.96;99531.75;5072685;28;20043;-81
2021/03/10 09:35:19;;;;;;;15.23;4.65;;;;;;;19.22;42.25;99536.84;5071779;28;20028;-85
2021/03/10 09:37:54;;;;;;;;;;;;;;;18.99;42.93;99530.97;5068054;28;20012;-81
2021/03/10 09:40:23;;;;;;;25.13;10.73;;;;;;;19.00;42.70;99527.00;5068272;28;19921;-79
2021/03/10 09:43:00;;;;;;;11.63;4.70;;;;;;;18.91;42.49;99521.09;5066112;28;20089;-84
2021/03/10 09:45:28;;;;;;;14.52;6.85;;;;;;;19.09;42.12;99508.78;5063990;28;20345;-83
2021/03/10 09:47:54;;;;;;;18.55;9.20;;;;;;;19.15;42.21;99484.25;5064877;28;20024;-87
2021/03/10 09:50:32;;;;;;;24.83;7.75;;;;;;;19.08;42.25;99485.06;5071468;28;20591;-81
2021/03/10 09:52:58;;;;;;;17.05;5.72;;;;;;;19.08;42.26;99462.13;5072339;28;20429;-84
2021/03/10 09:55:25;;;;;;;13.55;4.13;;;;;;;19.25;41.82;99466.78;5069150;28;20028;-76
2021/03/10 09:58:02;;;;;;;15.00;3.65;;;;;;;19.07;42.13;99479.94;5071409;28;20058;-77
2021/03/10 10:00:28;;;;;;;15.18;3.00;;;;;;;19.18;42.03;99486.19;5071130;28;20115;-78
2021/03/10 10:02:53;;;;;;;8.07;2.70;;;;;;;19.34;41.53;99481.00;5069622;28;20038;-76
2021/03/10 10:05:25;;;;;;;13.43;3.00;;;;;;;19.26;41.90;99484.97;5071758;28;20029;-77
2021/03/10 10:07:51;;;;;;;12.82;3.15;;;;;;;19.43;41.72;99454.84;5067745;28;20455;-77
2021/03/10 10:10:18;;;;;;;9.50;2.83;;;;;;;19.56;41.34;99428.25;5072120;28;20051;-77
2021/03/10 10:12:51;;;;;;;14.45;4.68;;;;;;;19.59;41.33;99416.41;5071343;28;20024;-77
2021/03/10 10:15:19;;;;;;;21.15;6.00;;;;;;;19.70;41.19;99405.22;5070850;28;20083;-79
2021/03/10 10:17:48;;;;;;;14.13;3.10;;;;;;;19.53;41.55;99407.69;5070566;28;20111;-79
2021/03/10 10:20:16;;;;;;;16.83;4.70;;;;;;;19.56;41.47;99406.88;5070423;28;20037;-77
2021/03/10 10:22:42;;;;;;;17.80;3.75;;;;;;;19.52;41.34;99403.34;5071087;28;20032;-82
2021/03/10 10:25:09;;;;;;;16.15;3.67;;;;;;;19.52;41.61;99392.28;5072210;28;20067;-79
2021/03/10 10:27:35;;;;;;;10.48;3.08;;;;;;;19.35;42.23;99348.88;5071107;28;20478;-81
2021/03/10 10:30:00;;;;;;;17.58;4.15;;;;;;;19.38;42.22;99361.88;5071933;28;20028;-77
2021/03/10 10:32:26;;;;;;;25.00;3.63;;;;;;;19.24;42.63;99359.22;5072929;28;20024;-77
2021/03/10 10:34:52;;;;;;;10.48;2.95;;;;;;;19.41;42.16;99336.13;5072530;28;20024;-81
2021/03/10 10:37:18;;;;;;;16.00;3.78;;;;;;;19.38;42.29;99323.13;5070088;28;20036;-78
2021/03/10 10:39:45;;;;;;;11.65;3.10;;;;;;;19.49;42.03;99318.28;5071052;28;20059;-77
2021/03/10 10:42:10;;;;;;;15.27;4.00;;;;;;;19.56;42.09;99307.13;5070401;28;20029;-78
2021/03/10 10:44:37;;;;;;;12.18;3.53;;;;;;;19.61;42.09;99276.25;5069628;28;20099;-78
2021/03/10 10:47:03;;;;;;;12.93;4.70;;;;;;;19.59;42.45;99272.34;5071923;28;20033;-78
2021/03/10 10:49:28;;;;;;;16.70;4.13;;;;;;;19.55;42.90;99266.00;5072480;28;20078;-78
2021/03/10 10:51:58;;;;;;;16.13;4.10;;;;;;;19.74;42.39;99259.94;5070985;28;20036;-76
2021/03/10 10:54:26;;;;;;;21.05;5.82;;;;;;;19.68;42.70;99267.88;5071841;28;20390;-79
2021/03/10 10:56:52;;;;;;;9.98;3.30;;;;;;;19.68;42.83;99254.03;5071328;28;20031;-80
2021/03/10 10:59:18;;;;;;;12.18;3.97;;;;;;;19.65;43.21;99240.22;5072968;28;20119;-78
2021/03/10 11:01:43;;;;;;;12.23;5.13;;;;;;;19.60;43.13;99224.03;5071643;28;20029;-83
2021/03/10 11:04:10;;;;;;;11.90;6.72;;;;;;;19.59;43.21;99214.16;5071178;28;20485;-81
2021/03/10 11:06:35;;;;;;;24.25;11.02;;;;;;;19.61;43.20;99201.47;5080422;28;20066;-90
2021/03/10 11:09:01;;;;;;;16.17;7.47;;;;;;;19.39;43.78;99188.97;5073048;28;20016;-87
2021/03/10 11:11:27;;;;;;;11.90;5.15;;;;;;;19.44;43.84;99179.44;5076488;28;20025;-90
2021/03/10 11:13:52;;;;;;;18.55;5.28;;;;;;;19.57;43.55;99175.78;5075071;28;20526;-89
2021/03/10 11:16:18;;;;;;;32.80;16.20;;;;;;;19.66;43.58;99180.84;5073464;28;20028;-92
2021/03/10 11:18:43;;;;;;;17.88;6.75;;;;;;;19.64;43.66;99177.66;5073386;28;20065;-80
2021/03/10 11:21:09;;;;;;;14.35;7.90;;;;;;;19.71;43.51;99165.72;5071906;28;20036;-89
2021/03/10 11:23:34;;;;;;;32.15;20.55;;;;;;;19.59;43.78;99131.03;5073408;28;20024;-90
2021/03/10 11:26:01;;;;;;;13.77;7.57;;;;;;;19.48;43.91;99135.88;5072236;28;20036;-85
2021/03/10 11:28:28;;;;;;;77.68;58.10;;;;;;;19.52;44.05;99131.09;5067093;28;20028;-90
2021/03/10 11:30:53;;;;;;;179.68;145.77;;;;;;;19.84;43.00;99119.66;5073165;28;20027;-88